sensor_id;sensor_type;location;lat;lon;timestamp;temperature;humidity
45715;DHT22;31430;61.646;24.704;2023-05-19T00:00:57;0.80;99.90
45715;DHT22;31430;61.646;24.704;2023-05-19T00:03:25;0.80;99.90
45715;DHT22;31430;61.646;24.704;2023-05-19T00:31:05;0.10;99.90
45715;DHT22;31430;61.646;24.704;2023-05-19T00:33:31;0.30;99.90
45715;DHT22;31430;61.646;24.704;2023-05-19T00:36:01;0.20;99.90
45715;DHT22;31430;61.646;24.704;2023-05-19T00:38:31;0.10;99.90
45715;DHT22;31430;61.646;24.704;2023-05-19T00:40:57;-0.10;99.90
45715;DHT22;31430;61.646;24.704;2023-05-19T00:43:23;-0.10;99.90
45715;DHT22;31430;61.646;24.704;2023-05-19T00:45:50;-0.10;99.90
45715;DHT22;31430;61.646;24.704;2023-05-19T00:48:15;-0.20;99.90
45715;DHT22;31430;61.646;24.704;2023-05-19T00:50:41;-0.20;99.90
45715;DHT22;31430;61.646;24.704;2023-05-19T00:53:08;-0.20;99.90
45715;DHT22;31430;61.646;24.704;2023-05-19T00:55:35;-0.30;99.90
45715;DHT22;31430;61.646;24.704;2023-05-19T00:58:03;-0.30;99.90
45715;DHT22;31430;61.646;24.704;2023-05-19T01:00:29;-0.30;99.90
45715;DHT22;31430;61.646;24.704;2023-05-19T01:02:55;-0.30;99.90
45715;DHT22;31430;61.646;24.704;2023-05-19T01:05:21;-0.30;99.90
45715;DHT22;31430;61.646;24.704;2023-05-19T01:07:47;-0.40;99.90
45715;DHT22;31430;61.646;24.704;2023-05-19T01:10:18;-0.50;99.90
45715;DHT22;31430;61.646;24.704;2023-05-19T01:12:44;-0.50;99.90
45715;DHT22;31430;61.646;24.704;2023-05-19T01:15:10;-0.50;99.90
45715;DHT22;31430;61.646;24.704;2023-05-19T01:17:51;-0.40;99.90
45715;DHT22;31430;61.646;24.704;2023-05-19T01:20:23;-0.40;99.90
45715;DHT22;31430;61.646;24.704;2023-05-19T01:30:42;-0.40;99.90
45715;DHT22;31430;61.646;24.704;2023-05-19T01:33:12;-0.40;99.90
45715;DHT22;31430;61.646;24.704;2023-05-19T01:35:39;-0.50;99.90
45715;DHT22;31430;61.646;24.704;2023-05-19T01:38:10;-0.50;99.90
45715;DHT22;31430;61.646;24.704;2023-05-19T01:40:38;-0.50;99.90
45715;DHT22;31430;61.646;24.704;2023-05-19T01:43:08;-0.60;99.90
45715;DHT22;31430;61.646;24.704;2023-05-19T01:45:34;-0.60;99.90
45715;DHT22;31430;61.646;24.704;2023-05-19T01:48:03;-0.60;99.90
45715;DHT22;31430;61.646;24.704;2023-05-19T01:50:30;-0.50;99.90
45715;DHT22;31430;61.646;24.704;2023-05-19T01:52:56;-0.50;99.90
45715;DHT22;31430;61.646;24.704;2023-05-19T01:55:21;-0.40;99.90
45715;DHT22;31430;61.646;24.704;2023-05-19T02:01:09;-0.40;99.90
45715;DHT22;31430;61.646;24.704;2023-05-19T02:06:48;-0.30;99.90
45715;DHT22;31430;61.646;24.704;2023-05-19T02:12:14;-0.30;99.90
45715;DHT22;31430;61.646;24.704;2023-05-19T02:15:05;-0.10;99.90
45715;DHT22;31430;61.646;24.704;2023-05-19T02:17:34;-0.10;99.90
45715;DHT22;31430;61.646;24.704;2023-05-19T02:20:05;0.00;99.90
45715;DHT22;31430;61.646;24.704;2023-05-19T02:22:31;0.00;99.90
45715;DHT22;31430;61.646;24.704;2023-05-19T02:24:57;0.20;99.90
45715;DHT22;31430;61.646;24.704;2023-05-19T02:27:22;0.20;99.90
45715;DHT22;31430;61.646;24.704;2023-05-19T02:29:48;0.20;99.90
45715;DHT22;31430;61.646;24.704;2023-05-19T02:32:14;0.20;99.90
45715;DHT22;31430;61.646;24.704;2023-05-19T02:34:40;0.30;99.90
45715;DHT22;31430;61.646;24.704;2023-05-19T02:37:12;0.40;99.90
45715;DHT22;31430;61.646;24.704;2023-05-19T02:39:39;0.60;99.90
45715;DHT22;31430;61.646;24.704;2023-05-19T02:42:05;0.50;99.90
45715;DHT22;31430;61.646;24.704;2023-05-19T02:44:31;0.70;99.90
45715;DHT22;31430;61.646;24.704;2023-05-19T02:46:57;0.70;99.90
45715;DHT22;31430;61.646;24.704;2023-05-19T02:49:23;0.90;99.90
45715;DHT22;31430;61.646;24.704;2023-05-19T02:51:48;0.90;99.90
45715;DHT22;31430;61.646;24.704;2023-05-19T02:54:14;1.10;99.90
45715;DHT22;31430;61.646;24.704;2023-05-19T02:56:40;1.10;99.90
45715;DHT22;31430;61.646;24.704;2023-05-19T02:59:05;1.30;99.90
45715;DHT22;31430;61.646;24.704;2023-05-19T03:01:31;1.40;99.90
45715;DHT22;31430;61.646;24.704;2023-05-19T03:03:58;1.50;99.90
45715;DHT22;31430;61.646;24.704;2023-05-19T03:06:24;1.80;99.90
45715;DHT22;31430;61.646;24.704;2023-05-19T03:08:50;1.90;99.90
45715;DHT22;31430;61.646;24.704;2023-05-19T03:11:16;1.80;99.90
45715;DHT22;31430;61.646;24.704;2023-05-19T03:13:43;1.90;99.90
45715;DHT22;31430;61.646;24.704;2023-05-19T03:16:08;1.90;99.90
45715;DHT22;31430;61.646;24.704;2023-05-19T03:18:34;2.00;99.90
45715;DHT22;31430;61.646;24.704;2023-05-19T03:21:00;2.10;99.90
45715;DHT22;31430;61.646;24.704;2023-05-19T03:23:26;2.30;99.90
45715;DHT22;31430;61.646;24.704;2023-05-19T03:25:52;2.30;99.90
45715;DHT22;31430;61.646;24.704;2023-05-19T03:28:21;2.50;99.90
45715;DHT22;31430;61.646;24.704;2023-05-19T03:30:48;2.60;99.90
45715;DHT22;31430;61.646;24.704;2023-05-19T03:33:16;2.70;99.90
45715;DHT22;31430;61.646;24.704;2023-05-19T03:35:42;2.90;99.90
45715;DHT22;31430;61.646;24.704;2023-05-19T03:38:09;2.80;99.90
45715;DHT22;31430;61.646;24.704;2023-05-19T03:40:35;3.00;99.90
45715;DHT22;31430;61.646;24.704;2023-05-19T03:43:00;3.20;99.90
45715;DHT22;31430;61.646;24.704;2023-05-19T03:45:27;3.40;99.90
45715;DHT22;31430;61.646;24.704;2023-05-19T03:47:52;3.70;99.90
45715;DHT22;31430;61.646;24.704;2023-05-19T03:50:18;3.80;99.90
45715;DHT22;31430;61.646;24.704;2023-05-19T03:52:44;4.10;99.90
45715;DHT22;31430;61.646;24.704;2023-05-19T03:55:11;4.30;99.90
45715;DHT22;31430;61.646;24.704;2023-05-19T03:57:39;4.40;99.90
45715;DHT22;31430;61.646;24.704;2023-05-19T04:00:06;4.60;99.90
45715;DHT22;31430;61.646;24.704;2023-05-19T04:02:32;4.90;99.90
45715;DHT22;31430;61.646;24.704;2023-05-19T04:04:58;4.90;99.90
45715;DHT22;31430;61.646;24.704;2023-05-19T04:07:24;5.20;99.90
45715;DHT22;31430;61.646;24.704;2023-05-19T04:09:50;5.50;99.90
45715;DHT22;31430;61.646;24.704;2023-05-19T04:12:15;5.60;99.90
45715;DHT22;31430;61.646;24.704;2023-05-19T04:14:41;5.80;99.90
45715;DHT22;31430;61.646;24.704;2023-05-19T04:17:07;5.90;99.90
45715;DHT22;31430;61.646;24.704;2023-05-19T04:19:33;6.10;99.90
45715;DHT22;31430;61.646;24.704;2023-05-19T04:21:59;5.90;99.90
45715;DHT22;31430;61.646;24.704;2023-05-19T04:24:24;6.00;99.90
45715;DHT22;31430;61.646;24.704;2023-05-19T04:26:50;5.90;99.90
45715;DHT22;31430;61.646;24.704;2023-05-19T04:29:16;5.90;99.90
45715;DHT22;31430;61.646;24.704;2023-05-19T04:31:45;6.00;99.90
45715;DHT22;31430;61.646;24.704;2023-05-19T04:34:11;6.10;99.90
45715;DHT22;31430;61.646;24.704;2023-05-19T04:36:37;6.10;99.90
45715;DHT22;31430;61.646;24.704;2023-05-19T04:39:03;6.20;99.90
45715;DHT22;31430;61.646;24.704;2023-05-19T04:41:32;6.40;99.90
45715;DHT22;31430;61.646;24.704;2023-05-19T04:43:59;6.50;99.90
45715;DHT22;31430;61.646;24.704;2023-05-19T04:46:25;6.70;99.90
45715;DHT22;31430;61.646;24.704;2023-05-19T04:48:51;6.60;99.90
45715;DHT22;31430;61.646;24.704;2023-05-19T04:51:18;6.60;99.90
45715;DHT22;31430;61.646;24.704;2023-05-19T04:53:44;6.80;99.90
45715;DHT22;31430;61.646;24.704;2023-05-19T04:56:10;6.90;99.90
45715;DHT22;31430;61.646;24.704;2023-05-19T04:58:40;7.10;99.90
45715;DHT22;31430;61.646;24.704;2023-05-19T05:01:06;7.10;99.90
45715;DHT22;31430;61.646;24.704;2023-05-19T05:03:34;7.00;99.90
45715;DHT22;31430;61.646;24.704;2023-05-19T05:06:00;7.00;99.90
45715;DHT22;31430;61.646;24.704;2023-05-19T05:08:25;7.10;99.90
45715;DHT22;31430;61.646;24.704;2023-05-19T05:10:52;7.40;99.90
45715;DHT22;31430;61.646;24.704;2023-05-19T05:13:21;7.30;99.90
45715;DHT22;31430;61.646;24.704;2023-05-19T05:15:47;7.30;99.90
45715;DHT22;31430;61.646;24.704;2023-05-19T05:18:14;7.30;99.90
45715;DHT22;31430;61.646;24.704;2023-05-19T05:20:44;7.50;99.90
45715;DHT22;31430;61.646;24.704;2023-05-19T05:23:11;7.60;99.90
45715;DHT22;31430;61.646;24.704;2023-05-19T05:25:42;7.50;99.30
45715;DHT22;31430;61.646;24.704;2023-05-19T05:28:08;7.50;99.70
45715;DHT22;31430;61.646;24.704;2023-05-19T05:30:34;7.60;99.90
45715;DHT22;31430;61.646;24.704;2023-05-19T05:33:00;7.60;99.90
45715;DHT22;31430;61.646;24.704;2023-05-19T05:35:26;7.80;99.90
45715;DHT22;31430;61.646;24.704;2023-05-19T05:37:52;7.90;99.90
45715;DHT22;31430;61.646;24.704;2023-05-19T05:40:18;8.00;99.20
45715;DHT22;31430;61.646;24.704;2023-05-19T05:42:45;7.90;96.20
45715;DHT22;31430;61.646;24.704;2023-05-19T05:45:11;8.00;95.20
45715;DHT22;31430;61.646;24.704;2023-05-19T05:47:37;8.10;96.30
45715;DHT22;31430;61.646;24.704;2023-05-19T05:50:08;8.10;94.70
45715;DHT22;31430;61.646;24.704;2023-05-19T05:52:35;8.30;95.90
45715;DHT22;31430;61.646;24.704;2023-05-19T05:55:04;8.50;94.80
45715;DHT22;31430;61.646;24.704;2023-05-19T05:57:30;8.50;93.40
45715;DHT22;31430;61.646;24.704;2023-05-19T05:59:56;8.50;92.30
45715;DHT22;31430;61.646;24.704;2023-05-19T06:02:21;8.50;91.40
45715;DHT22;31430;61.646;24.704;2023-05-19T06:04:47;8.60;87.10
45715;DHT22;31430;61.646;24.704;2023-05-19T06:07:13;8.80;90.00
45715;DHT22;31430;61.646;24.704;2023-05-19T06:09:39;8.60;87.50
45715;DHT22;31430;61.646;24.704;2023-05-19T06:12:04;8.70;86.50
45715;DHT22;31430;61.646;24.704;2023-05-19T06:14:31;8.60;84.10
45715;DHT22;31430;61.646;24.704;2023-05-19T06:16:56;8.70;82.10
45715;DHT22;31430;61.646;24.704;2023-05-19T06:19:22;8.90;83.90
45715;DHT22;31430;61.646;24.704;2023-05-19T06:21:50;8.90;82.30
45715;DHT22;31430;61.646;24.704;2023-05-19T06:24:15;9.00;82.80
45715;DHT22;31430;61.646;24.704;2023-05-19T06:26:41;9.10;80.10
45715;DHT22;31430;61.646;24.704;2023-05-19T06:29:07;9.20;79.00
45715;DHT22;31430;61.646;24.704;2023-05-19T06:31:32;9.10;78.60
45715;DHT22;31430;61.646;24.704;2023-05-19T06:33:58;9.20;80.20
45715;DHT22;31430;61.646;24.704;2023-05-19T06:36:24;9.20;82.20
45715;DHT22;31430;61.646;24.704;2023-05-19T06:38:50;9.20;81.70
45715;DHT22;31430;61.646;24.704;2023-05-19T06:41:16;9.40;79.40
45715;DHT22;31430;61.646;24.704;2023-05-19T06:43:42;9.50;78.50
45715;DHT22;31430;61.646;24.704;2023-05-19T06:46:07;9.40;77.70
45715;DHT22;31430;61.646;24.704;2023-05-19T06:48:33;9.50;76.80
45715;DHT22;31430;61.646;24.704;2023-05-19T06:50:59;9.30;74.10
45715;DHT22;31430;61.646;24.704;2023-05-19T06:53:25;9.40;77.90
45715;DHT22;31430;61.646;24.704;2023-05-19T06:55:50;9.60;78.50
45715;DHT22;31430;61.646;24.704;2023-05-19T06:58:16;9.70;79.20
45715;DHT22;31430;61.646;24.704;2023-05-19T07:00:42;9.90;80.30
45715;DHT22;31430;61.646;24.704;2023-05-19T07:03:08;9.70;75.00
45715;DHT22;31430;61.646;24.704;2023-05-19T07:05:34;9.70;77.50
45715;DHT22;31430;61.646;24.704;2023-05-19T07:08:00;9.70;77.90
45715;DHT22;31430;61.646;24.704;2023-05-19T07:10:26;9.80;77.90
45715;DHT22;31430;61.646;24.704;2023-05-19T07:12:52;9.90;77.60
45715;DHT22;31430;61.646;24.704;2023-05-19T07:15:18;9.90;78.00
45715;DHT22;31430;61.646;24.704;2023-05-19T07:17:43;10.10;75.60
45715;DHT22;31430;61.646;24.704;2023-05-19T07:20:09;10.50;76.50
45715;DHT22;31430;61.646;24.704;2023-05-19T07:22:36;10.40;78.10
45715;DHT22;31430;61.646;24.704;2023-05-19T07:25:02;10.40;77.00
45715;DHT22;31430;61.646;24.704;2023-05-19T07:27:28;10.50;73.20
45715;DHT22;31430;61.646;24.704;2023-05-19T07:29:54;10.40;72.80
45715;DHT22;31430;61.646;24.704;2023-05-19T07:32:20;10.60;74.50
45715;DHT22;31430;61.646;24.704;2023-05-19T07:34:45;10.70;70.70
45715;DHT22;31430;61.646;24.704;2023-05-19T07:37:11;10.90;70.40
45715;DHT22;31430;61.646;24.704;2023-05-19T07:39:37;10.90;73.60
45715;DHT22;31430;61.646;24.704;2023-05-19T07:42:03;10.90;71.50
45715;DHT22;31430;61.646;24.704;2023-05-19T07:44:29;10.90;72.20
45715;DHT22;31430;61.646;24.704;2023-05-19T07:46:56;10.90;70.50
45715;DHT22;31430;61.646;24.704;2023-05-19T07:49:21;11.00;69.10
45715;DHT22;31430;61.646;24.704;2023-05-19T07:51:47;11.00;72.10
45715;DHT22;31430;61.646;24.704;2023-05-19T07:54:13;11.30;68.90
45715;DHT22;31430;61.646;24.704;2023-05-19T07:56:39;11.20;66.00
45715;DHT22;31430;61.646;24.704;2023-05-19T07:59:05;11.40;64.70
45715;DHT22;31430;61.646;24.704;2023-05-19T08:01:32;11.60;72.20
45715;DHT22;31430;61.646;24.704;2023-05-19T08:03:58;11.60;70.00
45715;DHT22;31430;61.646;24.704;2023-05-19T08:06:24;11.70;70.50
45715;DHT22;31430;61.646;24.704;2023-05-19T08:08:50;11.70;69.00
45715;DHT22;31430;61.646;24.704;2023-05-19T08:11:16;11.80;68.80
45715;DHT22;31430;61.646;24.704;2023-05-19T08:13:42;12.00;70.30
45715;DHT22;31430;61.646;24.704;2023-05-19T08:16:08;12.20;68.30
45715;DHT22;31430;61.646;24.704;2023-05-19T08:18:34;12.00;66.70
45715;DHT22;31430;61.646;24.704;2023-05-19T08:20:59;12.20;70.10
45715;DHT22;31430;61.646;24.704;2023-05-19T08:23:25;12.30;69.60
45715;DHT22;31430;61.646;24.704;2023-05-19T08:25:51;12.30;67.60
45715;DHT22;31430;61.646;24.704;2023-05-19T08:28:17;12.10;67.60
45715;DHT22;31430;61.646;24.704;2023-05-19T08:30:43;12.00;66.30
45715;DHT22;31430;61.646;24.704;2023-05-19T08:33:08;12.30;64.10
45715;DHT22;31430;61.646;24.704;2023-05-19T08:35:35;12.30;69.00
45715;DHT22;31430;61.646;24.704;2023-05-19T08:38:00;12.40;66.00
45715;DHT22;31430;61.646;24.704;2023-05-19T08:40:27;12.20;66.60
45715;DHT22;31430;61.646;24.704;2023-05-19T08:42:56;12.50;67.80
45715;DHT22;31430;61.646;24.704;2023-05-19T08:45:21;12.40;65.50
45715;DHT22;31430;61.646;24.704;2023-05-19T08:47:48;12.20;62.50
45715;DHT22;31430;61.646;24.704;2023-05-19T08:50:22;12.30;66.70
45715;DHT22;31430;61.646;24.704;2023-05-19T08:52:54;12.40;65.80
45715;DHT22;31430;61.646;24.704;2023-05-19T08:55:51;12.40;63.50
45715;DHT22;31430;61.646;24.704;2023-05-19T08:58:20;12.20;66.30
45715;DHT22;31430;61.646;24.704;2023-05-19T09:00:47;12.40;63.90
45715;DHT22;31430;61.646;24.704;2023-05-19T09:03:14;12.40;66.30
45715;DHT22;31430;61.646;24.704;2023-05-19T09:05:40;12.40;62.90
45715;DHT22;31430;61.646;24.704;2023-05-19T09:08:07;12.60;63.90
45715;DHT22;31430;61.646;24.704;2023-05-19T09:10:32;12.60;65.50
45715;DHT22;31430;61.646;24.704;2023-05-19T09:12:58;12.90;61.20
45715;DHT22;31430;61.646;24.704;2023-05-19T09:15:26;12.80;62.30
45715;DHT22;31430;61.646;24.704;2023-05-19T09:18:10;12.80;64.50
45715;DHT22;31430;61.646;24.704;2023-05-19T09:20:36;12.90;62.20
45715;DHT22;31430;61.646;24.704;2023-05-19T09:23:04;12.90;63.90
45715;DHT22;31430;61.646;24.704;2023-05-19T09:25:30;13.10;65.10
45715;DHT22;31430;61.646;24.704;2023-05-19T09:27:56;13.20;65.00
45715;DHT22;31430;61.646;24.704;2023-05-19T09:30:23;13.50;62.10
45715;DHT22;31430;61.646;24.704;2023-05-19T09:32:50;13.60;62.00
45715;DHT22;31430;61.646;24.704;2023-05-19T09:35:16;13.60;60.30
45715;DHT22;31430;61.646;24.704;2023-05-19T09:37:45;13.80;61.40
45715;DHT22;31430;61.646;24.704;2023-05-19T09:40:12;14.00;65.90
45715;DHT22;31430;61.646;24.704;2023-05-19T09:42:39;13.80;59.70
45715;DHT22;31430;61.646;24.704;2023-05-19T09:45:06;14.00;61.60
45715;DHT22;31430;61.646;24.704;2023-05-19T09:47:39;13.90;61.80
45715;DHT22;31430;61.646;24.704;2023-05-19T09:52:42;14.30;57.40
45715;DHT22;31430;61.646;24.704;2023-05-19T09:55:10;14.40;59.70
45715;DHT22;31430;61.646;24.704;2023-05-19T09:57:38;14.30;60.50
45715;DHT22;31430;61.646;24.704;2023-05-19T10:00:05;14.40;57.50
45715;DHT22;31430;61.646;24.704;2023-05-19T10:02:37;14.40;58.80
45715;DHT22;31430;61.646;24.704;2023-05-19T10:05:06;14.20;56.90
45715;DHT22;31430;61.646;24.704;2023-05-19T10:07:32;14.10;57.30
45715;DHT22;31430;61.646;24.704;2023-05-19T10:09:59;14.20;58.40
45715;DHT22;31430;61.646;24.704;2023-05-19T10:12:25;14.50;55.60
45715;DHT22;31430;61.646;24.704;2023-05-19T10:14:53;14.60;57.50
45715;DHT22;31430;61.646;24.704;2023-05-19T10:17:19;14.60;55.10
45715;DHT22;31430;61.646;24.704;2023-05-19T10:19:47;14.50;57.00
45715;DHT22;31430;61.646;24.704;2023-05-19T10:22:15;14.40;56.80
45715;DHT22;31430;61.646;24.704;2023-05-19T10:24:40;14.40;60.40
45715;DHT22;31430;61.646;24.704;2023-05-19T10:27:10;14.50;58.50
45715;DHT22;31430;61.646;24.704;2023-05-19T10:29:43;14.40;60.30
45715;DHT22;31430;61.646;24.704;2023-05-19T10:32:14;14.60;59.20
45715;DHT22;31430;61.646;24.704;2023-05-19T10:39:59;15.40;58.50
45715;DHT22;31430;61.646;24.704;2023-05-19T10:43:01;15.30;56.90
45715;DHT22;31430;61.646;24.704;2023-05-19T10:45:35;15.40;53.50
45715;DHT22;31430;61.646;24.704;2023-05-19T10:48:03;15.40;60.50
45715;DHT22;31430;61.646;24.704;2023-05-19T10:50:35;15.70;59.20
45715;DHT22;31430;61.646;24.704;2023-05-19T10:53:02;15.50;57.60
45715;DHT22;31430;61.646;24.704;2023-05-19T10:55:44;15.40;57.50
45715;DHT22;31430;61.646;24.704;2023-05-19T10:58:11;15.40;56.90
45715;DHT22;31430;61.646;24.704;2023-05-19T11:00:38;15.40;56.00
45715;DHT22;31430;61.646;24.704;2023-05-19T11:03:14;15.20;56.80
45715;DHT22;31430;61.646;24.704;2023-05-19T11:05:40;15.40;58.00
45715;DHT22;31430;61.646;24.704;2023-05-19T11:08:10;15.70;53.30
45715;DHT22;31430;61.646;24.704;2023-05-19T11:10:37;15.90;56.80
45715;DHT22;31430;61.646;24.704;2023-05-19T11:13:05;16.00;55.60
45715;DHT22;31430;61.646;24.704;2023-05-19T11:15:34;16.00;58.60
45715;DHT22;31430;61.646;24.704;2023-05-19T11:18:03;16.20;59.00
45715;DHT22;31430;61.646;24.704;2023-05-19T11:20:29;16.10;54.40
45715;DHT22;31430;61.646;24.704;2023-05-19T11:23:15;16.30;55.60
45715;DHT22;31430;61.646;24.704;2023-05-19T11:25:51;16.20;55.70
45715;DHT22;31430;61.646;24.704;2023-05-19T11:28:21;16.10;54.90
45715;DHT22;31430;61.646;24.704;2023-05-19T11:30:53;16.20;54.10
45715;DHT22;31430;61.646;24.704;2023-05-19T11:33:22;16.00;54.60
45715;DHT22;31430;61.646;24.704;2023-05-19T11:35:53;16.00;57.60
45715;DHT22;31430;61.646;24.704;2023-05-19T11:38:19;16.20;57.50
45715;DHT22;31430;61.646;24.704;2023-05-19T11:40:48;16.40;52.80
45715;DHT22;31430;61.646;24.704;2023-05-19T11:43:14;16.30;54.20
45715;DHT22;31430;61.646;24.704;2023-05-19T11:45:41;16.30;54.60
45715;DHT22;31430;61.646;24.704;2023-05-19T11:48:10;16.10;55.90
45715;DHT22;31430;61.646;24.704;2023-05-19T11:50:36;15.90;55.10
45715;DHT22;31430;61.646;24.704;2023-05-19T11:53:03;16.20;52.90
45715;DHT22;31430;61.646;24.704;2023-05-19T11:55:29;16.50;49.90
45715;DHT22;31430;61.646;24.704;2023-05-19T11:57:57;16.60;52.10
45715;DHT22;31430;61.646;24.704;2023-05-19T12:00:27;16.70;53.90
45715;DHT22;31430;61.646;24.704;2023-05-19T12:02:53;16.50;53.60
45715;DHT22;31430;61.646;24.704;2023-05-19T12:05:21;16.40;55.50
45715;DHT22;31430;61.646;24.704;2023-05-19T12:07:47;16.50;53.40
45715;DHT22;31430;61.646;24.704;2023-05-19T12:10:26;16.90;51.40
45715;DHT22;31430;61.646;24.704;2023-05-19T12:12:53;16.90;51.00
45715;DHT22;31430;61.646;24.704;2023-05-19T12:15:20;16.70;50.90
45715;DHT22;31430;61.646;24.704;2023-05-19T12:18:01;16.40;52.30
45715;DHT22;31430;61.646;24.704;2023-05-19T12:20:28;16.40;54.50
45715;DHT22;31430;61.646;24.704;2023-05-19T12:22:56;16.90;57.00
45715;DHT22;31430;61.646;24.704;2023-05-19T12:25:23;16.90;52.20
45715;DHT22;31430;61.646;24.704;2023-05-19T12:27:49;17.00;58.40
45715;DHT22;31430;61.646;24.704;2023-05-19T12:30:17;17.10;49.30
45715;DHT22;31430;61.646;24.704;2023-05-19T12:32:44;16.90;50.50
45715;DHT22;31430;61.646;24.704;2023-05-19T12:35:10;17.00;52.90
45715;DHT22;31430;61.646;24.704;2023-05-19T12:37:40;16.80;52.30
45715;DHT22;31430;61.646;24.704;2023-05-19T12:40:06;17.00;53.40
45715;DHT22;31430;61.646;24.704;2023-05-19T12:42:32;17.00;52.50
45715;DHT22;31430;61.646;24.704;2023-05-19T12:45:02;17.20;50.40
45715;DHT22;31430;61.646;24.704;2023-05-19T12:47:30;17.30;54.30
45715;DHT22;31430;61.646;24.704;2023-05-19T12:50:04;17.40;54.50
45715;DHT22;31430;61.646;24.704;2023-05-19T12:52:32;17.40;50.70
45715;DHT22;31430;61.646;24.704;2023-05-19T12:55:04;17.50;55.40
45715;DHT22;31430;61.646;24.704;2023-05-19T12:57:38;17.50;51.80
45715;DHT22;31430;61.646;24.704;2023-05-19T13:00:18;17.40;47.80
45715;DHT22;31430;61.646;24.704;2023-05-19T13:05:34;17.40;47.40
45715;DHT22;31430;61.646;24.704;2023-05-19T13:08:05;17.20;49.10
45715;DHT22;31430;61.646;24.704;2023-05-19T13:10:32;17.30;49.40
45715;DHT22;31430;61.646;24.704;2023-05-19T13:12:58;17.50;45.40
45715;DHT22;31430;61.646;24.704;2023-05-19T13:15:26;17.60;52.10
45715;DHT22;31430;61.646;24.704;2023-05-19T13:17:53;17.60;49.90
45715;DHT22;31430;61.646;24.704;2023-05-19T13:20:20;17.60;51.00
45715;DHT22;31430;61.646;24.704;2023-05-19T13:22:47;17.70;49.30
45715;DHT22;31430;61.646;24.704;2023-05-19T13:25:13;17.60;51.20
45715;DHT22;31430;61.646;24.704;2023-05-19T13:27:39;17.80;50.50
45715;DHT22;31430;61.646;24.704;2023-05-19T13:30:05;17.80;51.90
45715;DHT22;31430;61.646;24.704;2023-05-19T13:32:31;17.90;47.30
45715;DHT22;31430;61.646;24.704;2023-05-19T13:34:57;18.20;47.10
45715;DHT22;31430;61.646;24.704;2023-05-19T13:37:23;18.20;47.40
45715;DHT22;31430;61.646;24.704;2023-05-19T13:39:49;18.00;48.40
45715;DHT22;31430;61.646;24.704;2023-05-19T13:42:15;17.80;49.50
45715;DHT22;31430;61.646;24.704;2023-05-19T13:44:43;17.70;50.40
45715;DHT22;31430;61.646;24.704;2023-05-19T13:47:09;17.80;51.90
45715;DHT22;31430;61.646;24.704;2023-05-19T13:49:35;17.80;51.10
45715;DHT22;31430;61.646;24.704;2023-05-19T13:52:00;17.80;46.80
45715;DHT22;31430;61.646;24.704;2023-05-19T13:54:26;18.40;52.50
45715;DHT22;31430;61.646;24.704;2023-05-19T13:56:52;18.30;52.00
45715;DHT22;31430;61.646;24.704;2023-05-19T13:59:18;18.30;51.70
45715;DHT22;31430;61.646;24.704;2023-05-19T14:01:46;18.20;51.80
45715;DHT22;31430;61.646;24.704;2023-05-19T14:04:15;17.90;49.60
45715;DHT22;31430;61.646;24.704;2023-05-19T14:06:40;17.90;50.60
45715;DHT22;31430;61.646;24.704;2023-05-19T14:09:06;18.00;47.90
45715;DHT22;31430;61.646;24.704;2023-05-19T14:11:32;18.10;47.60
45715;DHT22;31430;61.646;24.704;2023-05-19T14:13:58;18.10;49.70
45715;DHT22;31430;61.646;24.704;2023-05-19T14:16:24;18.30;52.30
45715;DHT22;31430;61.646;24.704;2023-05-19T14:18:50;18.50;52.40
45715;DHT22;31430;61.646;24.704;2023-05-19T14:21:16;18.20;49.50
45715;DHT22;31430;61.646;24.704;2023-05-19T14:23:42;18.00;49.00
45715;DHT22;31430;61.646;24.704;2023-05-19T14:26:08;18.00;49.40
45715;DHT22;31430;61.646;24.704;2023-05-19T14:28:33;18.10;51.10
45715;DHT22;31430;61.646;24.704;2023-05-19T14:30:59;18.00;49.40
45715;DHT22;31430;61.646;24.704;2023-05-19T14:33:25;18.10;50.40
45715;DHT22;31430;61.646;24.704;2023-05-19T14:35:51;18.10;50.70
45715;DHT22;31430;61.646;24.704;2023-05-19T14:38:17;18.00;50.70
45715;DHT22;31430;61.646;24.704;2023-05-19T14:40:43;17.90;50.00
45715;DHT22;31430;61.646;24.704;2023-05-19T14:43:09;18.00;51.60
45715;DHT22;31430;61.646;24.704;2023-05-19T14:45:36;18.10;50.80
45715;DHT22;31430;61.646;24.704;2023-05-19T14:48:02;18.30;51.90
45715;DHT22;31430;61.646;24.704;2023-05-19T14:50:28;18.30;50.80
45715;DHT22;31430;61.646;24.704;2023-05-19T14:52:53;18.50;49.60
45715;DHT22;31430;61.646;24.704;2023-05-19T14:55:19;18.60;54.60
45715;DHT22;31430;61.646;24.704;2023-05-19T14:57:45;18.30;51.80
45715;DHT22;31430;61.646;24.704;2023-05-19T15:00:11;18.30;51.20
45715;DHT22;31430;61.646;24.704;2023-05-19T15:02:37;18.20;47.30
45715;DHT22;31430;61.646;24.704;2023-05-19T15:05:03;18.10;51.50
45715;DHT22;31430;61.646;24.704;2023-05-19T15:07:28;18.20;50.80
45715;DHT22;31430;61.646;24.704;2023-05-19T15:09:54;18.20;47.00
45715;DHT22;31430;61.646;24.704;2023-05-19T15:12:20;18.30;48.80
45715;DHT22;31430;61.646;24.704;2023-05-19T15:14:45;18.10;50.70
45715;DHT22;31430;61.646;24.704;2023-05-19T15:17:11;18.00;47.80
45715;DHT22;31430;61.646;24.704;2023-05-19T15:19:37;18.20;48.60
45715;DHT22;31430;61.646;24.704;2023-05-19T15:22:05;18.20;49.70
45715;DHT22;31430;61.646;24.704;2023-05-19T15:24:30;18.20;49.60
45715;DHT22;31430;61.646;24.704;2023-05-19T15:26:56;18.00;48.80
45715;DHT22;31430;61.646;24.704;2023-05-19T15:29:22;18.00;50.10
45715;DHT22;31430;61.646;24.704;2023-05-19T15:31:51;18.00;52.30
45715;DHT22;31430;61.646;24.704;2023-05-19T15:34:17;18.10;51.10
45715;DHT22;31430;61.646;24.704;2023-05-19T15:36:43;18.00;49.90
45715;DHT22;31430;61.646;24.704;2023-05-19T15:39:09;17.90;50.60
45715;DHT22;31430;61.646;24.704;2023-05-19T15:41:35;17.90;49.40
45715;DHT22;31430;61.646;24.704;2023-05-19T15:44:01;18.00;50.20
45715;DHT22;31430;61.646;24.704;2023-05-19T15:46:27;18.00;49.30
45715;DHT22;31430;61.646;24.704;2023-05-19T15:48:53;17.70;46.90
45715;DHT22;31430;61.646;24.704;2023-05-19T15:51:19;17.80;46.80
45715;DHT22;31430;61.646;24.704;2023-05-19T15:53:45;17.80;49.30
45715;DHT22;31430;61.646;24.704;2023-05-19T15:56:10;17.60;50.10
45715;DHT22;31430;61.646;24.704;2023-05-19T15:58:37;17.70;52.20
45715;DHT22;31430;61.646;24.704;2023-05-19T16:01:06;17.70;51.90
45715;DHT22;31430;61.646;24.704;2023-05-19T16:03:32;17.70;52.40
45715;DHT22;31430;61.646;24.704;2023-05-19T16:05:58;17.70;52.10
45715;DHT22;31430;61.646;24.704;2023-05-19T16:08:24;17.70;50.20
45715;DHT22;31430;61.646;24.704;2023-05-19T16:10:50;17.70;51.80
45715;DHT22;31430;61.646;24.704;2023-05-19T16:13:15;17.40;55.00